createdAt,value
2019-06-01T00:00:53.123Z,0.00
2019-06-01T00:01:53.113Z,0.00
2019-06-01T00:02:56.270Z,0.00
2019-06-01T00:03:53.074Z,0.00
2019-06-01T00:04:53.069Z,0.00
2019-06-01T00:05:53.053Z,0.00
2019-06-01T00:06:53.041Z,0.00
2019-06-01T00:07:53.053Z,0.00
2019-06-01T00:08:53.038Z,0.00
2019-06-01T00:09:53.012Z,0.00
2019-06-01T00:10:53.033Z,0.00
2019-06-01T00:11:53.001Z,0.00
2019-06-01T00:12:52.974Z,0.00
2019-06-01T00:13:52.972Z,0.00
2019-06-01T00:14:52.946Z,0.00
2019-06-01T00:15:52.940Z,0.00
2019-06-01T00:16:52.929Z,0.00
2019-06-01T00:17:52.924Z,0.00
2019-06-01T00:18:52.915Z,0.00
2019-06-01T00:19:52.917Z,0.00
2019-06-01T00:20:52.884Z,0.00
2019-06-01T00:21:54.234Z,0.00
2019-06-01T00:22:52.888Z,0.00
2019-06-01T00:23:52.941Z,0.00
2019-06-01T00:24:52.853Z,0.00
2019-06-01T00:25:52.954Z,0.00
2019-06-01T00:26:52.822Z,0.00
2019-06-01T00:27:52.925Z,0.00
2019-06-01T00:28:53.095Z,0.00
2019-06-01T00:29:53.126Z,0.00
2019-06-01T00:30:52.821Z,0.00
2019-06-01T00:31:52.848Z,0.00
2019-06-01T00:32:52.751Z,0.00
2019-06-01T00:33:52.756Z,0.00
2019-06-01T00:34:52.741Z,0.00
2019-06-01T00:35:52.719Z,0.00
2019-06-01T00:36:52.721Z,0.00
2019-06-01T00:37:52.703Z,0.00
2019-06-01T00:38:52.721Z,0.00
2019-06-01T00:39:52.667Z,0.00
2019-06-01T00:40:52.663Z,0.00
2019-06-01T00:41:52.664Z,0.00
2019-06-01T00:42:52.633Z,0.00
2019-06-01T00:43:52.630Z,0.00
2019-06-01T00:44:52.623Z,0.00
2019-06-01T00:45:53.166Z,0.00
2019-06-01T00:46:52.814Z,0.00
2019-06-01T00:47:53.043Z,0.00
2019-06-01T00:48:52.580Z,0.00
2019-06-01T00:49:53.090Z,0.00
2019-06-01T00:50:53.207Z,0.00
2019-06-01T00:51:53.779Z,0.00
2019-06-01T00:52:53.411Z,0.00
2019-06-01T00:53:53.575Z,0.00
2019-06-01T00:54:53.607Z,0.00
2019-06-01T00:55:53.636Z,0.00
2019-06-01T00:56:53.722Z,0.00
2019-06-01T00:57:53.856Z,0.00
2019-06-01T00:58:52.464Z,0.00
2019-06-01T00:59:53.695Z,0.00
2019-06-01T01:00:53.806Z,0.00
2019-06-01T01:01:52.476Z,0.00
2019-06-01T01:02:52.408Z,0.00
2019-06-01T01:03:52.430Z,0.00
2019-06-01T01:04:52.516Z,0.00
2019-06-01T01:05:52.723Z,0.00
2019-06-01T01:06:52.808Z,0.00
2019-06-01T01:07:53.564Z,0.00
2019-06-01T01:08:52.988Z,0.00
2019-06-01T01:09:52.897Z,0.00
2019-06-01T01:10:53.092Z,0.00
2019-06-01T01:11:53.330Z,0.00
2019-06-01T01:12:53.177Z,0.00
2019-06-01T01:13:53.551Z,0.00
2019-06-01T01:14:53.328Z,0.00
2019-06-01T01:15:53.417Z,0.00
2019-06-01T01:16:52.261Z,0.00
2019-06-01T01:17:52.248Z,0.00
2019-06-01T01:18:52.237Z,0.00
2019-06-01T01:19:52.225Z,0.00
2019-06-01T01:20:52.218Z,0.00
2019-06-01T01:21:52.249Z,0.00
2019-06-01T01:22:52.306Z,0.00
2019-06-01T01:23:53.147Z,0.00
2019-06-01T01:24:52.404Z,0.00
2019-06-01T01:25:52.616Z,0.00
2019-06-01T01:26:52.623Z,0.00
2019-06-01T01:27:52.743Z,0.00
2019-06-01T01:28:52.956Z,0.00
2019-06-01T01:29:53.176Z,0.00
2019-06-01T01:31:06.937Z,0.00
2019-06-01T01:31:53.258Z,0.00
2019-06-01T01:32:53.251Z,0.00
2019-06-01T01:33:52.069Z,0.00
2019-06-01T01:34:52.060Z,0.00
2019-06-01T01:35:52.582Z,0.00
2019-06-01T01:36:52.729Z,0.00
2019-06-01T01:37:52.046Z,0.00
2019-06-01T01:38:52.378Z,0.00
2019-06-01T01:39:52.212Z,0.00
2019-06-01T01:40:52.187Z,0.00
2019-06-01T01:41:52.190Z,0.00
2019-06-01T01:42:52.379Z,0.00
2019-06-01T01:43:52.775Z,0.00
2019-06-01T01:44:52.530Z,0.00
2019-06-01T01:45:52.718Z,0.00
2019-06-01T01:46:52.745Z,0.00
2019-06-01T01:47:52.893Z,0.00
2019-06-01T01:48:52.028Z,0.00
2019-06-01T01:49:52.114Z,0.00
2019-06-01T01:50:52.408Z,0.00
2019-06-01T01:51:52.819Z,0.00
2019-06-01T01:52:52.757Z,0.00
2019-06-01T01:53:52.983Z,0.00
2019-06-01T01:54:52.803Z,0.00
2019-06-01T01:55:52.941Z,0.00
2019-06-01T01:56:52.147Z,0.00
2019-06-01T01:57:51.808Z,0.00
2019-06-01T01:58:52.324Z,0.00
2019-06-01T01:59:51.787Z,0.00
2019-06-01T02:00:52.997Z,0.00
2019-06-01T02:01:52.519Z,0.00
2019-06-01T02:02:51.849Z,0.00
2019-06-01T02:03:53.233Z,0.00
2019-06-01T02:04:51.752Z,0.00
2019-06-01T02:05:52.953Z,0.00
2019-06-01T02:06:51.915Z,0.00
2019-06-01T02:07:52.790Z,0.00
2019-06-01T02:08:53.361Z,0.00
2019-06-01T02:09:51.668Z,0.00
2019-06-01T02:10:51.665Z,0.00
2019-06-01T02:11:51.639Z,0.00
2019-06-01T02:12:51.629Z,0.00
2019-06-01T02:13:51.622Z,0.00
2019-06-01T02:14:51.688Z,0.00
2019-06-01T02:15:52.253Z,0.00
2019-06-01T02:16:51.936Z,0.00
2019-06-01T02:17:52.040Z,0.00
2019-06-01T02:18:53.850Z,0.00
2019-06-01T02:19:51.983Z,0.00
2019-06-01T02:20:52.248Z,0.00
2019-06-01T02:21:52.327Z,0.00
2019-06-01T02:22:52.943Z,0.00
2019-06-01T02:23:52.875Z,4.00
2019-06-01T02:24:51.509Z,0.00
2019-06-01T02:25:52.786Z,0.00
2019-06-01T02:26:52.928Z,0.00
2019-06-01T02:27:51.501Z,4.00
2019-06-01T02:28:51.446Z,4.00
2019-06-01T02:29:51.442Z,0.00
2019-06-01T02:30:51.423Z,4.00
2019-06-01T02:31:51.425Z,4.00
2019-06-01T02:32:51.409Z,4.00
2019-06-01T02:33:51.397Z,0.00
2019-06-01T02:34:51.378Z,4.00
2019-06-01T02:35:51.373Z,4.00
2019-06-01T02:36:51.367Z,8.00
2019-06-01T02:37:51.351Z,4.00
2019-06-01T02:38:51.341Z,4.00
2019-06-01T02:39:51.324Z,8.00
2019-06-01T02:40:51.313Z,8.00
2019-06-01T02:41:51.302Z,8.00
2019-06-01T02:42:51.295Z,8.00
2019-06-01T02:43:51.287Z,12.00
2019-06-01T02:44:51.275Z,12.00
2019-06-01T02:45:51.259Z,12.00
2019-06-01T02:46:51.315Z,16.00
2019-06-01T02:47:51.239Z,12.00
2019-06-01T02:48:51.234Z,12.00
2019-06-01T02:49:51.229Z,16.00
2019-06-01T02:50:51.207Z,16.00
2019-06-01T02:51:51.197Z,16.00
2019-06-01T02:52:51.182Z,20.00
2019-06-01T02:53:51.165Z,20.00
2019-06-01T02:54:51.173Z,20.00
2019-06-01T02:55:51.164Z,20.00
2019-06-01T02:56:51.153Z,24.00
2019-06-01T02:57:51.127Z,24.00
2019-06-01T02:58:51.122Z,24.00
2019-06-01T02:59:51.110Z,28.00
2019-06-01T03:00:51.093Z,28.00
2019-06-01T03:01:57.467Z,28.00
2019-06-01T03:02:52.063Z,32.00
2019-06-01T03:03:51.055Z,36.00
2019-06-01T03:04:51.060Z,36.00
2019-06-01T03:05:51.041Z,40.00
2019-06-01T03:06:51.045Z,40.00
2019-06-01T03:07:51.010Z,44.00
2019-06-01T03:08:50.997Z,44.00
2019-06-01T03:09:50.984Z,48.00
2019-06-01T03:10:50.977Z,48.00
2019-06-01T03:11:50.970Z,48.00
2019-06-01T03:12:50.976Z,52.00
2019-06-01T03:13:50.951Z,56.00
2019-06-01T03:14:50.938Z,56.00
2019-06-01T03:15:50.928Z,60.00
2019-06-01T03:16:50.917Z,60.00
2019-06-01T03:17:50.910Z,64.00
2019-06-01T03:18:50.904Z,64.00
2019-06-01T03:19:50.882Z,68.00
2019-06-01T03:20:50.862Z,72.00
2019-06-01T03:21:50.857Z,72.00
2019-06-01T03:22:50.849Z,76.00
2019-06-01T03:23:50.861Z,76.00
2019-06-01T03:24:50.838Z,80.00
2019-06-01T03:25:50.816Z,84.00
2019-06-01T03:26:50.806Z,88.00
2019-06-01T03:27:50.800Z,88.00
2019-06-01T03:28:50.782Z,92.00
2019-06-01T03:29:50.782Z,96.00
2019-06-01T03:30:50.766Z,96.00
2019-06-01T03:31:50.746Z,96.00
2019-06-01T03:32:50.739Z,100.00
2019-06-01T03:33:50.732Z,104.00
2019-06-01T03:34:50.719Z,108.00
2019-06-01T03:35:50.730Z,112.00
2019-06-01T03:36:50.691Z,112.00
2019-06-01T03:37:50.687Z,116.00
2019-06-01T03:38:50.730Z,120.00
2019-06-01T03:39:50.671Z,124.00
2019-06-01T03:40:50.655Z,124.00
2019-06-01T03:41:50.638Z,128.00
2019-06-01T03:42:50.626Z,132.00
2019-06-01T03:43:50.614Z,136.00
2019-06-01T03:44:50.602Z,140.00
2019-06-01T03:45:50.588Z,144.00
2019-06-01T03:46:50.636Z,148.00
2019-06-01T03:47:50.573Z,152.00
2019-06-01T03:48:50.566Z,156.00
2019-06-01T03:49:50.555Z,156.00
2019-06-01T03:50:50.537Z,160.00
2019-06-01T03:51:50.526Z,164.00
2019-06-01T03:52:50.508Z,172.00
2019-06-01T03:53:50.505Z,176.00
2019-06-01T03:54:50.488Z,180.00
2019-06-01T03:55:50.488Z,188.00
2019-06-01T03:56:50.468Z,192.00
2019-06-01T03:57:50.462Z,196.00
2019-06-01T03:58:50.470Z,204.00
2019-06-01T03:59:50.439Z,208.00
2019-06-01T04:00:50.427Z,208.00
2019-06-01T04:01:50.422Z,212.00
2019-06-01T04:02:50.406Z,212.00
2019-06-01T04:03:50.410Z,212.00
2019-06-01T04:04:50.386Z,212.00
2019-06-01T04:05:50.378Z,212.00
2019-06-01T04:06:50.360Z,216.00
2019-06-01T04:07:50.351Z,216.00
2019-06-01T04:08:50.344Z,216.00
2019-06-01T04:09:50.330Z,220.00
2019-06-01T04:10:50.316Z,228.00
2019-06-01T04:11:50.302Z,232.00
2019-06-01T04:12:50.293Z,236.00
2019-06-01T04:13:50.283Z,240.00
2019-06-01T04:14:50.286Z,244.00
2019-06-01T04:15:50.255Z,244.00
2019-06-01T04:16:50.249Z,244.00
2019-06-01T04:17:50.246Z,248.00
2019-06-01T04:18:50.227Z,248.00
2019-06-01T04:19:50.212Z,252.00
2019-06-01T04:20:50.212Z,260.00
2019-06-01T04:21:50.194Z,264.00
2019-06-01T04:22:50.182Z,264.00
2019-06-01T04:23:50.168Z,268.00
2019-06-01T04:24:50.158Z,268.00
2019-06-01T04:25:50.148Z,272.00
2019-06-01T04:26:50.145Z,276.00
2019-06-01T04:27:50.130Z,284.00
2019-06-01T04:28:50.147Z,296.00
2019-06-01T04:29:50.101Z,300.00
2019-06-01T04:30:50.093Z,308.00
2019-06-01T04:31:50.087Z,312.00
2019-06-01T04:32:50.646Z,312.00
2019-06-01T04:33:50.066Z,328.00
2019-06-01T04:34:50.042Z,340.00
2019-06-01T04:35:50.041Z,352.00
2019-06-01T04:36:50.024Z,364.00
2019-06-01T04:37:50.016Z,376.00
2019-06-01T04:38:50.003Z,376.00
2019-06-01T04:39:49.998Z,376.00
2019-06-01T04:40:49.988Z,380.00
2019-06-01T04:41:49.968Z,384.00
2019-06-01T04:42:49.965Z,384.00
2019-06-01T04:43:49.954Z,388.00
2019-06-01T04:44:49.931Z,396.00
2019-06-01T04:45:49.924Z,404.00
2019-06-01T04:46:49.910Z,408.00
2019-06-01T04:47:49.907Z,412.00
2019-06-01T04:48:49.906Z,416.00
2019-06-01T04:49:49.912Z,420.00
2019-06-01T04:50:49.870Z,436.00
2019-06-01T04:51:49.857Z,440.00
2019-06-01T04:52:49.853Z,440.00
2019-06-01T04:53:49.833Z,452.00
2019-06-01T04:54:49.826Z,468.00
2019-06-01T04:55:49.825Z,476.00
2019-06-01T04:56:49.807Z,480.00
2019-06-01T04:57:49.792Z,492.00
2019-06-01T04:58:49.781Z,480.00
2019-06-01T04:59:49.766Z,512.00
2019-06-01T05:00:49.752Z,532.00
2019-06-01T05:01:49.747Z,544.00
2019-06-01T05:02:56.566Z,556.00
2019-06-01T05:03:50.719Z,580.00
2019-06-01T05:04:49.717Z,604.00
2019-06-01T05:05:49.701Z,628.00
2019-06-01T05:06:49.690Z,648.00
2019-06-01T05:07:49.679Z,652.00
2019-06-01T05:08:49.667Z,668.00
2019-06-01T05:09:49.650Z,668.00
2019-06-01T05:10:49.644Z,660.00
2019-06-01T05:11:49.635Z,652.00
2019-06-01T05:12:49.623Z,668.00
2019-06-01T05:13:49.610Z,696.00
2019-06-01T05:14:49.607Z,728.00
2019-06-01T05:15:49.592Z,736.00
2019-06-01T05:16:49.575Z,752.00
2019-06-01T05:17:49.562Z,772.00
2019-06-01T05:18:49.568Z,804.00
2019-06-01T05:19:49.552Z,864.00
2019-06-01T05:20:49.538Z,896.00
2019-06-01T05:21:49.522Z,964.00
2019-06-01T05:22:49.536Z,996.00
2019-06-01T05:23:49.496Z,928.00
2019-06-01T05:24:49.487Z,956.00
2019-06-01T05:25:49.475Z,1016.00
2019-06-01T05:26:49.464Z,1108.00
2019-06-01T05:27:49.458Z,1108.00
2019-06-01T05:28:49.445Z,1060.00
2019-06-01T05:29:49.436Z,1136.00
2019-06-01T05:30:49.420Z,1172.00
2019-06-01T05:31:49.461Z,1220.00
2019-06-01T05:32:49.414Z,1280.00
2019-06-01T05:33:49.393Z,1200.00
2019-06-01T05:34:49.379Z,1168.00
2019-06-01T05:35:49.375Z,1012.00
2019-06-01T05:36:49.359Z,1012.00
2019-06-01T05:37:49.343Z,964.00
2019-06-01T05:38:49.335Z,888.00
2019-06-01T05:39:49.324Z,880.00
2019-06-01T05:40:49.317Z,812.00
2019-06-01T05:41:49.317Z,812.00
2019-06-01T05:42:49.291Z,780.00
2019-06-01T05:43:49.281Z,812.00
2019-06-01T05:44:49.264Z,816.00
2019-06-01T05:45:49.257Z,768.00
2019-06-01T05:46:49.249Z,732.00
2019-06-01T05:47:49.237Z,752.00
2019-06-01T05:48:49.225Z,716.00
2019-06-01T05:49:49.210Z,676.00
2019-06-01T05:50:49.210Z,644.00
2019-06-01T05:51:49.192Z,676.00
2019-06-01T05:52:49.190Z,676.00
2019-06-01T05:53:49.181Z,700.00
2019-06-01T05:54:49.164Z,788.00
2019-06-01T05:55:49.152Z,852.00
2019-06-01T05:56:49.138Z,940.00
2019-06-01T05:57:49.126Z,1004.00
2019-06-01T05:58:49.125Z,996.00
2019-06-01T05:59:49.105Z,1004.00
2019-06-01T06:00:49.091Z,1016.00
2019-06-01T06:01:49.091Z,948.00
2019-06-01T06:02:49.069Z,976.00
2019-06-01T06:03:49.067Z,1036.00
2019-06-01T06:04:49.058Z,936.00
2019-06-01T06:05:49.040Z,980.00
2019-06-01T06:06:49.024Z,1024.00
2019-06-01T06:07:49.032Z,1072.00
2019-06-01T06:08:49.003Z,1084.00
2019-06-01T06:09:48.999Z,1084.00
2019-06-01T06:10:48.984Z,1076.00
2019-06-01T06:11:48.969Z,1064.00
2019-06-01T06:12:48.993Z,976.00
2019-06-01T06:13:48.945Z,924.00
2019-06-01T06:14:48.950Z,996.00
2019-06-01T06:15:48.942Z,1064.00
2019-06-01T06:16:48.919Z,1052.00
2019-06-01T06:17:48.909Z,1016.00
2019-06-01T06:18:48.936Z,1096.00
2019-06-01T06:19:48.881Z,1332.00
2019-06-01T06:20:48.917Z,1560.00
2019-06-01T06:21:48.858Z,1684.00
2019-06-01T06:22:48.855Z,1576.00
2019-06-01T06:23:48.858Z,1468.00
2019-06-01T06:24:48.840Z,1248.00
2019-06-01T06:25:48.822Z,1108.00
2019-06-01T06:26:48.818Z,1048.00
2019-06-01T06:27:48.801Z,704.00
2019-06-01T06:28:48.788Z,572.00
2019-06-01T06:29:48.782Z,604.00
2019-06-01T06:30:48.781Z,656.00
2019-06-01T06:31:48.752Z,836.00
2019-06-01T06:32:48.748Z,1088.00
2019-06-01T06:33:56.399Z,1004.00
2019-06-01T06:34:49.744Z,760.00
2019-06-01T06:35:48.761Z,860.00
2019-06-01T06:36:48.705Z,1020.00
2019-06-01T06:37:48.686Z,1300.00
2019-06-01T06:38:48.677Z,1652.00
2019-06-01T06:39:48.678Z,2000.00
2019-06-01T06:40:48.660Z,1844.00
2019-06-01T06:41:48.645Z,1156.00
2019-06-01T06:42:48.631Z,892.00
2019-06-01T06:43:48.620Z,832.00
2019-06-01T06:44:48.618Z,768.00
2019-06-01T06:45:48.600Z,820.00
2019-06-01T06:46:48.601Z,900.00
2019-06-01T06:47:48.589Z,1044.00
2019-06-01T06:48:48.563Z,1252.00
2019-06-01T06:49:48.552Z,1276.00
2019-06-01T06:50:48.546Z,1380.00
2019-06-01T06:51:48.540Z,1496.00
2019-06-01T06:52:48.521Z,2768.00
2019-06-01T06:53:48.537Z,4576.00
2019-06-01T06:54:48.498Z,2740.00
2019-06-01T06:55:48.491Z,7476.00
2019-06-01T06:56:48.501Z,19040.00
2019-06-01T06:57:48.464Z,7284.00
2019-06-01T06:58:48.486Z,1816.00
2019-06-01T06:59:48.726Z,2180.00
2019-06-01T07:00:48.433Z,12600.00
2019-06-01T07:01:48.428Z,7760.00
2019-06-01T07:02:48.411Z,16672.00
2019-06-01T07:03:48.418Z,3852.00
2019-06-01T07:04:48.514Z,2288.00
2019-06-01T07:05:48.373Z,2088.00
2019-06-01T07:06:48.369Z,2164.00
2019-06-01T07:07:48.365Z,2248.00
2019-06-01T07:08:49.100Z,1908.00
2019-06-01T07:09:48.390Z,1864.00
2019-06-01T07:10:48.322Z,1968.00
2019-06-01T07:11:48.327Z,1944.00
2019-06-01T07:12:48.300Z,1876.00
2019-06-01T07:13:48.291Z,1896.00
2019-06-01T07:14:48.282Z,2820.00
2019-06-01T07:15:48.280Z,1988.00
2019-06-01T07:16:48.269Z,1952.00
2019-06-01T07:17:48.274Z,1968.00
2019-06-01T07:18:48.237Z,1996.00
2019-06-01T07:19:48.257Z,1956.00
2019-06-01T07:20:48.267Z,1964.00
2019-06-01T07:21:48.262Z,1764.00
2019-06-01T07:22:48.324Z,1728.00
2019-06-01T07:23:48.571Z,1732.00
2019-06-01T07:24:48.375Z,1820.00
2019-06-01T07:25:48.907Z,4944.00
2019-06-01T07:26:48.152Z,3848.00
2019-06-01T07:27:48.206Z,2720.00
2019-06-01T07:28:48.208Z,3040.00
2019-06-01T07:29:49.284Z,3020.00
2019-06-01T07:30:50.692Z,2808.00
2019-06-01T07:31:48.143Z,2228.00
2019-06-01T07:32:48.102Z,2068.00
2019-06-01T07:33:48.068Z,2436.00
2019-06-01T07:34:48.089Z,2408.00
2019-06-01T07:35:48.056Z,2056.00
2019-06-01T07:36:48.056Z,2300.00
2019-06-01T07:37:48.050Z,2244.00
2019-06-01T07:38:48.032Z,1804.00
2019-06-01T07:39:48.090Z,2020.00
2019-06-01T07:40:48.006Z,1992.00
2019-06-01T07:41:47.994Z,2072.00
2019-06-01T07:42:47.975Z,2308.00
2019-06-01T07:43:48.010Z,1960.00
2019-06-01T07:44:48.010Z,2076.00
2019-06-01T07:45:47.946Z,2236.00
2019-06-01T07:46:47.964Z,2656.00
2019-06-01T07:47:47.961Z,3052.00
2019-06-01T07:48:47.914Z,2228.00
2019-06-01T07:49:47.907Z,2172.00
2019-06-01T07:50:47.886Z,2440.00
2019-06-01T07:51:47.900Z,2004.00
2019-06-01T07:52:47.870Z,2200.00
2019-06-01T07:53:47.856Z,2184.00
2019-06-01T07:54:47.854Z,2372.00
2019-06-01T07:55:47.942Z,2364.00
2019-06-01T07:56:47.832Z,2076.00
2019-06-01T07:57:47.832Z,2072.00
2019-06-01T07:58:47.794Z,2380.00
2019-06-01T07:59:47.798Z,2644.00
2019-06-01T08:00:47.808Z,2368.00
2019-06-01T08:01:47.779Z,2512.00
2019-06-01T08:02:47.808Z,1620.00
2019-06-01T08:03:47.752Z,3572.00
2019-06-01T08:04:53.978Z,2684.00
2019-06-01T08:05:48.749Z,2472.00
2019-06-01T08:06:48.958Z,2372.00
2019-06-01T08:07:47.704Z,2156.00
2019-06-01T08:08:47.697Z,2060.00
2019-06-01T08:09:47.746Z,2376.00
2019-06-01T08:10:47.749Z,2264.00
2019-06-01T08:11:47.893Z,3608.00
2019-06-01T08:12:47.731Z,2656.00
2019-06-01T08:13:47.767Z,3300.00
2019-06-01T08:14:47.626Z,3824.00
2019-06-01T08:15:47.635Z,2984.00
2019-06-01T08:16:47.658Z,2212.00
2019-06-01T08:17:47.716Z,2416.00
2019-06-01T08:18:47.643Z,2612.00
2019-06-01T08:19:51.640Z,2852.00
2019-06-01T08:20:47.588Z,2736.00
2019-06-01T08:21:47.619Z,2636.00
2019-06-01T08:22:47.552Z,2276.00
2019-06-01T08:23:47.642Z,2796.00
2019-06-01T08:24:47.534Z,2800.00
2019-06-01T08:25:47.574Z,2788.00
2019-06-01T08:26:47.503Z,2624.00
2019-06-01T08:27:47.495Z,2364.00
2019-06-01T08:28:47.484Z,2428.00
2019-06-01T08:29:47.489Z,2372.00
2019-06-01T08:30:47.475Z,2436.00
2019-06-01T08:31:47.463Z,2492.00
2019-06-01T08:32:47.443Z,2464.00
2019-06-01T08:33:47.435Z,2460.00
2019-06-01T08:34:47.422Z,2396.00
2019-06-01T08:35:47.426Z,2564.00
2019-06-01T08:36:47.390Z,3444.00
2019-06-01T08:37:47.383Z,3056.00
2019-06-01T08:38:47.386Z,2336.00
2019-06-01T08:39:47.363Z,2304.00
2019-06-01T08:40:47.365Z,2368.00
2019-06-01T08:41:47.360Z,2380.00
2019-06-01T08:42:47.322Z,2652.00
2019-06-01T08:43:47.314Z,2516.00
2019-06-01T08:44:47.320Z,2716.00
2019-06-01T08:45:47.368Z,2800.00
2019-06-01T08:46:47.396Z,2768.00
2019-06-01T08:47:47.329Z,2604.00
2019-06-01T08:48:47.263Z,2544.00
2019-06-01T08:49:47.250Z,2636.00
2019-06-01T08:50:47.249Z,2504.00
2019-06-01T08:51:47.223Z,2372.00
2019-06-01T08:52:47.226Z,2328.00
2019-06-01T08:53:47.204Z,2212.00
2019-06-01T08:54:47.194Z,1992.00
2019-06-01T08:55:47.186Z,2008.00
2019-06-01T08:56:47.173Z,2084.00
2019-06-01T08:57:47.176Z,2136.00
2019-06-01T08:58:47.144Z,2088.00
2019-06-01T08:59:47.135Z,2388.00
2019-06-01T09:00:47.130Z,2528.00
2019-06-01T09:01:47.114Z,2684.00
2019-06-01T09:02:47.105Z,2388.00
2019-06-01T09:03:47.142Z,2532.00
2019-06-01T09:04:47.078Z,1688.00
2019-06-01T09:05:47.077Z,2024.00
2019-06-01T09:06:47.072Z,1688.00
2019-06-01T09:07:47.059Z,1656.00
2019-06-01T09:08:47.047Z,2556.00
2019-06-01T09:09:47.034Z,2460.00
2019-06-01T09:10:47.020Z,2424.00
2019-06-01T09:11:47.004Z,2496.00
2019-06-01T09:12:46.994Z,2760.00
2019-06-01T09:13:46.989Z,2736.00
2019-06-01T09:14:47.000Z,2760.00
2019-06-01T09:15:46.973Z,3260.00
2019-06-01T09:16:46.956Z,2920.00
2019-06-01T09:17:46.944Z,3096.00
2019-06-01T09:18:46.935Z,3552.00
2019-06-01T09:19:46.921Z,2480.00
2019-06-01T09:20:46.913Z,2380.00
2019-06-01T09:21:46.916Z,3064.00
2019-06-01T09:22:48.201Z,2764.00
2019-06-01T09:23:46.878Z,2748.00
2019-06-01T09:24:46.864Z,2596.00
2019-06-01T09:25:46.860Z,2468.00
2019-06-01T09:26:46.861Z,1904.00
2019-06-01T09:27:46.830Z,2868.00
2019-06-01T09:28:46.824Z,2996.00
2019-06-01T09:29:46.820Z,3020.00
2019-06-01T09:30:46.796Z,2676.00
2019-06-01T09:31:46.868Z,2992.00
2019-06-01T09:32:46.915Z,2940.00
2019-06-01T09:33:46.910Z,3004.00
2019-06-01T09:34:46.838Z,2952.00
2019-06-01T09:35:55.508Z,3024.00
2019-06-01T09:36:47.877Z,3172.00
2019-06-01T09:37:46.723Z,2940.00
2019-06-01T09:38:46.711Z,2848.00
2019-06-01T09:39:46.712Z,2916.00
2019-06-01T09:40:46.685Z,2964.00
2019-06-01T09:41:46.674Z,3124.00
2019-06-01T09:42:46.663Z,3244.00
2019-06-01T09:43:46.659Z,3168.00
2019-06-01T09:44:46.643Z,3360.00
2019-06-01T09:45:46.633Z,2416.00
2019-06-01T09:46:46.614Z,2924.00
2019-06-01T09:47:46.980Z,2688.00
2019-06-01T09:48:46.657Z,2688.00
2019-06-01T09:49:46.585Z,2584.00
2019-06-01T09:50:46.575Z,2856.00
2019-06-01T09:51:46.621Z,3156.00
2019-06-01T09:52:46.567Z,3132.00
2019-06-01T09:53:46.535Z,3160.00
2019-06-01T09:54:46.529Z,2848.00
2019-06-01T09:55:46.518Z,2720.00
2019-06-01T09:56:46.512Z,2548.00
2019-06-01T09:57:46.497Z,2692.00
2019-06-01T09:58:46.482Z,2872.00
2019-06-01T09:59:46.474Z,2980.00
2019-06-01T10:00:46.459Z,3016.00
2019-06-01T10:01:46.541Z,3164.00
2019-06-01T10:02:46.442Z,3032.00
2019-06-01T10:03:46.428Z,3108.00
2019-06-01T10:04:46.422Z,2276.00
2019-06-01T10:06:00.796Z,1924.00
2019-06-01T10:06:47.399Z,1896.00
2019-06-01T10:07:46.392Z,1748.00
2019-06-01T10:08:46.396Z,2176.00
2019-06-01T10:09:46.364Z,3284.00
2019-06-01T10:10:46.370Z,1464.00
2019-06-01T10:11:46.357Z,1280.00
2019-06-01T10:12:46.335Z,1388.00
2019-06-01T10:13:46.329Z,2788.00
2019-06-01T10:14:46.321Z,2808.00
2019-06-01T10:15:46.306Z,3004.00
2019-06-01T10:16:46.316Z,3132.00
2019-06-01T10:17:46.294Z,2936.00
2019-06-01T10:18:46.268Z,3220.00
2019-06-01T10:19:46.257Z,3580.00
2019-06-01T10:20:46.284Z,3364.00
2019-06-01T10:21:46.234Z,2112.00
2019-06-01T10:22:46.229Z,2000.00
2019-06-01T10:23:49.669Z,1508.00
2019-06-01T10:24:46.202Z,1876.00
2019-06-01T10:25:46.191Z,3076.00
2019-06-01T10:26:46.177Z,1332.00
2019-06-01T10:27:46.177Z,1296.00
2019-06-01T10:28:46.169Z,1972.00
2019-06-01T10:29:46.172Z,3316.00
2019-06-01T10:30:46.146Z,2980.00
2019-06-01T10:31:46.125Z,3200.00
2019-06-01T10:32:46.148Z,3168.00
2019-06-01T10:33:46.108Z,3172.00
2019-06-01T10:34:46.100Z,3380.00
2019-06-01T10:35:46.087Z,3468.00
2019-06-01T10:36:46.069Z,4260.00
2019-06-01T10:37:46.057Z,1488.00
2019-06-01T10:38:46.047Z,1560.00
2019-06-01T10:39:46.043Z,1780.00
2019-06-01T10:40:46.038Z,3736.00
2019-06-01T10:41:46.023Z,4240.00
2019-06-01T10:42:45.999Z,2560.00
2019-06-01T10:43:46.000Z,1652.00
2019-06-01T10:44:46.229Z,3332.00
2019-06-01T10:45:45.974Z,3320.00
2019-06-01T10:46:45.963Z,4096.00
2019-06-01T10:47:45.945Z,2748.00
2019-06-01T10:48:45.932Z,4028.00
2019-06-01T10:49:45.922Z,4904.00
2019-06-01T10:50:45.915Z,4204.00
2019-06-01T10:51:45.920Z,3916.00
2019-06-01T10:52:45.897Z,9784.00
2019-06-01T10:53:45.878Z,11676.00
2019-06-01T10:54:45.866Z,11912.00
2019-06-01T10:55:45.861Z,18656.00
2019-06-01T10:56:45.850Z,25248.00
2019-06-01T10:57:45.939Z,23616.00
2019-06-01T10:58:59.262Z,3236.00
2019-06-01T10:59:46.815Z,23936.00
2019-06-01T11:00:50.870Z,24064.00
2019-06-01T11:01:46.877Z,23840.00
2019-06-01T11:02:45.822Z,2688.00
2019-06-01T11:03:45.783Z,21472.00
2019-06-01T11:04:45.772Z,21440.00
2019-06-01T11:05:45.769Z,20896.00
2019-06-01T11:06:48.675Z,19264.00
2019-06-01T11:07:45.758Z,20640.00
2019-06-01T11:08:45.747Z,19936.00
2019-06-01T11:09:45.744Z,19552.00
2019-06-01T11:10:45.710Z,18688.00
2019-06-01T11:11:45.705Z,17696.00
2019-06-01T11:12:45.681Z,16352.00
2019-06-01T11:13:45.664Z,15328.00
2019-06-01T11:14:45.659Z,15008.00
2019-06-01T11:15:45.895Z,14272.00
2019-06-01T11:16:45.646Z,13196.00
2019-06-01T11:17:45.635Z,10824.00
2019-06-01T11:18:45.623Z,9748.00
2019-06-01T11:19:45.608Z,8712.00
2019-06-01T11:20:45.599Z,7088.00
2019-06-01T11:21:45.587Z,6780.00
2019-06-01T11:22:45.575Z,6032.00
2019-06-01T11:23:46.632Z,4784.00
2019-06-01T11:24:45.558Z,1924.00
2019-06-01T11:25:45.568Z,4908.00
2019-06-01T11:26:45.532Z,4708.00
2019-06-01T11:27:45.523Z,4420.00
2019-06-01T11:28:45.519Z,3068.00
2019-06-01T11:29:51.300Z,4532.00
2019-06-01T11:30:46.493Z,4512.00
2019-06-01T11:31:45.488Z,4196.00
2019-06-01T11:32:45.476Z,4016.00
2019-06-01T11:33:45.462Z,3832.00
2019-06-01T11:34:45.450Z,3508.00
2019-06-01T11:35:45.552Z,3400.00
2019-06-01T11:37:03.695Z,3020.00
2019-06-01T11:37:46.416Z,2808.00
2019-06-01T11:38:45.406Z,1584.00
2019-06-01T11:39:45.400Z,2920.00
2019-06-01T11:40:45.401Z,2768.00
2019-06-01T11:41:45.377Z,2812.00
2019-06-01T11:42:45.362Z,2816.00
2019-06-01T11:43:46.121Z,2848.00
2019-06-01T11:44:45.395Z,3068.00
2019-06-01T11:45:45.335Z,3108.00
2019-06-01T11:46:45.316Z,2928.00
2019-06-01T11:47:45.327Z,3008.00
2019-06-01T11:48:45.497Z,1084.00
2019-06-01T11:49:45.315Z,3336.00
2019-06-01T11:50:45.433Z,3272.00
2019-06-01T11:51:45.371Z,3012.00
2019-06-01T11:52:45.572Z,2992.00
2019-06-01T11:53:45.787Z,2940.00
2019-06-01T11:54:45.504Z,2888.00
2019-06-01T11:55:45.610Z,2896.00
2019-06-01T11:56:45.575Z,2920.00
2019-06-01T11:57:45.927Z,2944.00
2019-06-01T11:58:45.600Z,2944.00
2019-06-01T11:59:45.673Z,3032.00
2019-06-01T12:00:45.877Z,3000.00
2019-06-01T12:01:46.057Z,3000.00
2019-06-01T12:02:45.973Z,3016.00
2019-06-01T12:03:46.185Z,3012.00
2019-06-01T12:04:46.357Z,3036.00
2019-06-01T12:05:46.065Z,2988.00
2019-06-01T12:06:46.291Z,3028.00
2019-06-01T12:07:46.113Z,3204.00
2019-06-01T12:08:46.345Z,3320.00
2019-06-01T12:09:46.068Z,3416.00
2019-06-01T12:10:45.348Z,3420.00
2019-06-01T12:11:46.249Z,3324.00
2019-06-01T12:12:46.340Z,3124.00
2019-06-01T12:13:46.423Z,3072.00
2019-06-01T12:14:46.651Z,3072.00
2019-06-01T12:15:45.017Z,3052.00
2019-06-01T12:16:45.019Z,3080.00
2019-06-01T12:17:45.029Z,3104.00
2019-06-01T12:18:44.994Z,3140.00
2019-06-01T12:19:44.968Z,3168.00
2019-06-01T12:20:45.035Z,3152.00
2019-06-01T12:21:45.295Z,3232.00
2019-06-01T12:22:45.197Z,3232.00
2019-06-01T12:23:45.650Z,3232.00
2019-06-01T12:24:45.125Z,3272.00
2019-06-01T12:25:44.902Z,3244.00
2019-06-01T12:26:45.523Z,3260.00
2019-06-01T12:27:46.089Z,3344.00